sensor_id;sensor_type;location;lat;lon;timestamp;P1;durP1;ratioP1;P2;durP2;ratioP2
77322;SDS011;66384;51.052;9.850;2023-12-04T00:01:26;19.40;;;9.40;;
77322;SDS011;66384;51.052;9.850;2023-12-04T00:03:58;22.00;;;9.50;;
77322;SDS011;66384;51.052;9.850;2023-12-04T00:06:31;21.60;;;9.10;;
77322;SDS011;66384;51.052;9.850;2023-12-04T00:09:03;25.80;;;9.60;;
77322;SDS011;66384;51.052;9.850;2023-12-04T00:11:34;21.40;;;9.30;;
77322;SDS011;66384;51.052;9.850;2023-12-04T00:14:06;19.30;;;8.40;;
77322;SDS011;66384;51.052;9.850;2023-12-04T00:16:38;26.80;;;8.70;;
77322;SDS011;66384;51.052;9.850;2023-12-04T00:19:10;19.50;;;8.80;;
77322;SDS011;66384;51.052;9.850;2023-12-04T00:21:42;26.10;;;9.80;;
77322;SDS011;66384;51.052;9.850;2023-12-04T00:24:14;22.50;;;7.90;;
77322;SDS011;66384;51.052;9.850;2023-12-04T00:26:46;23.00;;;9.30;;
77322;SDS011;66384;51.052;9.850;2023-12-04T00:29:17;24.50;;;8.80;;
77322;SDS011;66384;51.052;9.850;2023-12-04T00:31:49;22.40;;;8.90;;
77322;SDS011;66384;51.052;9.850;2023-12-04T00:34:21;19.10;;;8.50;;
77322;SDS011;66384;51.052;9.850;2023-12-04T00:36:53;21.90;;;8.80;;
77322;SDS011;66384;51.052;9.850;2023-12-04T00:39:25;23.90;;;9.40;;
77322;SDS011;66384;51.052;9.850;2023-12-04T00:41:56;22.00;;;8.40;;
77322;SDS011;66384;51.052;9.850;2023-12-04T00:44:28;19.60;;;8.30;;
77322;SDS011;66384;51.052;9.850;2023-12-04T00:47:00;19.20;;;8.80;;
77322;SDS011;66384;51.052;9.850;2023-12-04T00:49:32;20.50;;;7.90;;
77322;SDS011;66384;51.052;9.850;2023-12-04T00:52:04;20.20;;;9.00;;
77322;SDS011;66384;51.052;9.850;2023-12-04T00:54:36;23.00;;;8.50;;
77322;SDS011;66384;51.052;9.850;2023-12-04T00:57:11;19.50;;;7.60;;
77322;SDS011;66384;51.052;9.850;2023-12-04T00:59:43;27.50;;;8.40;;
77322;SDS011;66384;51.052;9.850;2023-12-04T01:02:14;19.90;;;7.30;;
77322;SDS011;66384;51.052;9.850;2023-12-04T01:04:46;23.10;;;8.30;;
77322;SDS011;66384;51.052;9.850;2023-12-04T01:07:18;18.10;;;7.70;;
77322;SDS011;66384;51.052;9.850;2023-12-04T01:09:49;23.50;;;9.10;;
77322;SDS011;66384;51.052;9.850;2023-12-04T01:12:21;17.10;;;8.30;;
77322;SDS011;66384;51.052;9.850;2023-12-04T01:14:53;18.10;;;8.40;;
77322;SDS011;66384;51.052;9.850;2023-12-04T01:17:25;17.40;;;9.00;;
77322;SDS011;66384;51.052;9.850;2023-12-04T01:19:57;21.60;;;9.30;;
77322;SDS011;66384;51.052;9.850;2023-12-04T01:22:28;21.60;;;8.00;;
77322;SDS011;66384;51.052;9.850;2023-12-04T01:25:00;19.60;;;7.80;;
77322;SDS011;66384;51.052;9.850;2023-12-04T01:27:33;23.80;;;9.30;;
77322;SDS011;66384;51.052;9.850;2023-12-04T01:30:07;22.10;;;8.60;;
77322;SDS011;66384;51.052;9.850;2023-12-04T01:32:42;19.60;;;8.40;;
77322;SDS011;66384;51.052;9.850;2023-12-04T01:35:14;21.10;;;9.00;;
77322;SDS011;66384;51.052;9.850;2023-12-04T01:37:46;20.00;;;8.50;;
77322;SDS011;66384;51.052;9.850;2023-12-04T01:40:18;18.50;;;8.10;;
77322;SDS011;66384;51.052;9.850;2023-12-04T01:42:50;22.70;;;9.30;;
77322;SDS011;66384;51.052;9.850;2023-12-04T01:45:21;18.30;;;7.50;;
77322;SDS011;66384;51.052;9.850;2023-12-04T01:47:53;18.70;;;7.90;;
77322;SDS011;66384;51.052;9.850;2023-12-04T01:50:25;18.70;;;8.40;;
77322;SDS011;66384;51.052;9.850;2023-12-04T01:52:57;18.50;;;7.50;;
77322;SDS011;66384;51.052;9.850;2023-12-04T01:55:29;20.10;;;8.70;;
77322;SDS011;66384;51.052;9.850;2023-12-04T01:58:02;21.00;;;7.90;;
77322;SDS011;66384;51.052;9.850;2023-12-04T02:00:35;16.60;;;7.40;;
77322;SDS011;66384;51.052;9.850;2023-12-04T02:03:07;16.60;;;9.00;;
77322;SDS011;66384;51.052;9.850;2023-12-04T02:05:40;17.20;;;8.50;;
77322;SDS011;66384;51.052;9.850;2023-12-04T02:08:13;20.20;;;8.20;;
77322;SDS011;66384;51.052;9.850;2023-12-04T02:10:46;17.20;;;6.50;;
77322;SDS011;66384;51.052;9.850;2023-12-04T02:13:18;19.70;;;7.20;;
77322;SDS011;66384;51.052;9.850;2023-12-04T02:15:51;19.80;;;7.70;;
77322;SDS011;66384;51.052;9.850;2023-12-04T02:18:24;20.90;;;7.30;;
77322;SDS011;66384;51.052;9.850;2023-12-04T02:20:56;24.10;;;8.50;;
77322;SDS011;66384;51.052;9.850;2023-12-04T02:23:28;20.30;;;8.00;;
77322;SDS011;66384;51.052;9.850;2023-12-04T02:26:01;22.60;;;7.90;;
77322;SDS011;66384;51.052;9.850;2023-12-04T02:28:38;20.60;;;7.10;;
77322;SDS011;66384;51.052;9.850;2023-12-04T02:31:15;18.50;;;6.90;;
77322;SDS011;66384;51.052;9.850;2023-12-04T02:33:49;16.70;;;8.20;;
77322;SDS011;66384;51.052;9.850;2023-12-04T02:36:25;20.20;;;8.30;;
77322;SDS011;66384;51.052;9.850;2023-12-04T02:38:59;25.10;;;9.90;;
77322;SDS011;66384;51.052;9.850;2023-12-04T02:41:31;20.00;;;8.70;;
77322;SDS011;66384;51.052;9.850;2023-12-04T02:44:03;19.50;;;9.30;;
77322;SDS011;66384;51.052;9.850;2023-12-04T02:46:35;16.70;;;8.00;;
77322;SDS011;66384;51.052;9.850;2023-12-04T02:49:06;16.60;;;7.90;;
77322;SDS011;66384;51.052;9.850;2023-12-04T02:51:39;17.90;;;8.40;;
77322;SDS011;66384;51.052;9.850;2023-12-04T02:54:12;19.50;;;8.40;;
77322;SDS011;66384;51.052;9.850;2023-12-04T02:56:43;20.20;;;8.40;;
77322;SDS011;66384;51.052;9.850;2023-12-04T02:59:15;17.80;;;7.50;;
77322;SDS011;66384;51.052;9.850;2023-12-04T03:01:47;17.20;;;8.20;;
77322;SDS011;66384;51.052;9.850;2023-12-04T03:04:20;18.40;;;8.60;;
77322;SDS011;66384;51.052;9.850;2023-12-04T03:06:51;18.90;;;8.20;;
77322;SDS011;66384;51.052;9.850;2023-12-04T03:09:23;19.10;;;8.60;;
77322;SDS011;66384;51.052;9.850;2023-12-04T03:12:15;16.00;;;6.80;;
77322;SDS011;66384;51.052;9.850;2023-12-04T03:14:47;19.10;;;7.80;;
77322;SDS011;66384;51.052;9.850;2023-12-04T03:17:18;16.70;;;8.00;;
77322;SDS011;66384;51.052;9.850;2023-12-04T03:19:50;17.20;;;7.40;;
77322;SDS011;66384;51.052;9.850;2023-12-04T03:22:22;17.10;;;7.20;;
77322;SDS011;66384;51.052;9.850;2023-12-04T03:24:53;19.20;;;8.90;;
77322;SDS011;66384;51.052;9.850;2023-12-04T03:27:25;17.50;;;7.50;;
77322;SDS011;66384;51.052;9.850;2023-12-04T03:29:57;18.50;;;8.30;;
77322;SDS011;66384;51.052;9.850;2023-12-04T03:32:29;15.90;;;7.10;;
77322;SDS011;66384;51.052;9.850;2023-12-04T03:35:01;19.60;;;7.90;;
77322;SDS011;66384;51.052;9.850;2023-12-04T03:37:33;17.70;;;6.60;;
77322;SDS011;66384;51.052;9.850;2023-12-04T03:40:07;22.10;;;7.60;;
77322;SDS011;66384;51.052;9.850;2023-12-04T03:42:40;21.80;;;8.50;;
77322;SDS011;66384;51.052;9.850;2023-12-04T03:45:11;20.00;;;7.50;;
77322;SDS011;66384;51.052;9.850;2023-12-04T03:47:43;23.50;;;7.80;;
77322;SDS011;66384;51.052;9.850;2023-12-04T03:50:15;38.10;;;17.10;;
77322;SDS011;66384;51.052;9.850;2023-12-04T03:52:46;31.40;;;13.90;;
77322;SDS011;66384;51.052;9.850;2023-12-04T03:55:18;29.60;;;12.10;;
77322;SDS011;66384;51.052;9.850;2023-12-04T03:57:50;21.40;;;10.30;;
77322;SDS011;66384;51.052;9.850;2023-12-04T04:00:22;18.80;;;8.70;;
77322;SDS011;66384;51.052;9.850;2023-12-04T04:02:53;17.30;;;8.40;;
77322;SDS011;66384;51.052;9.850;2023-12-04T04:05:25;18.00;;;9.10;;
77322;SDS011;66384;51.052;9.850;2023-12-04T04:07:57;17.70;;;9.40;;
77322;SDS011;66384;51.052;9.850;2023-12-04T04:10:29;20.20;;;9.30;;
77322;SDS011;66384;51.052;9.850;2023-12-04T04:13:01;20.00;;;7.90;;
77322;SDS011;66384;51.052;9.850;2023-12-04T04:15:33;21.00;;;8.80;;
77322;SDS011;66384;51.052;9.850;2023-12-04T04:18:05;18.30;;;8.40;;
77322;SDS011;66384;51.052;9.850;2023-12-04T04:20:37;39.50;;;15.30;;
77322;SDS011;66384;51.052;9.850;2023-12-04T04:23:09;53.60;;;20.50;;
77322;SDS011;66384;51.052;9.850;2023-12-04T04:25:41;35.60;;;14.20;;
77322;SDS011;66384;51.052;9.850;2023-12-04T04:28:12;32.60;;;12.90;;
77322;SDS011;66384;51.052;9.850;2023-12-04T04:30:44;26.80;;;12.30;;
77322;SDS011;66384;51.052;9.850;2023-12-04T04:33:16;22.50;;;10.60;;
77322;SDS011;66384;51.052;9.850;2023-12-04T04:35:47;24.10;;;9.80;;
77322;SDS011;66384;51.052;9.850;2023-12-04T04:38:19;18.10;;;8.10;;
77322;SDS011;66384;51.052;9.850;2023-12-04T04:40:51;20.60;;;8.30;;
77322;SDS011;66384;51.052;9.850;2023-12-04T04:43:23;20.10;;;7.70;;
77322;SDS011;66384;51.052;9.850;2023-12-04T04:45:55;15.90;;;7.70;;
77322;SDS011;66384;51.052;9.850;2023-12-04T04:48:27;16.60;;;7.50;;
77322;SDS011;66384;51.052;9.850;2023-12-04T04:50:58;17.40;;;7.80;;
77322;SDS011;66384;51.052;9.850;2023-12-04T04:53:30;16.00;;;7.90;;
77322;SDS011;66384;51.052;9.850;2023-12-04T04:56:02;16.40;;;7.20;;
77322;SDS011;66384;51.052;9.850;2023-12-04T04:58:35;13.70;;;5.90;;
77322;SDS011;66384;51.052;9.850;2023-12-04T05:01:07;18.90;;;6.80;;
77322;SDS011;66384;51.052;9.850;2023-12-04T05:03:39;25.60;;;8.00;;
77322;SDS011;66384;51.052;9.850;2023-12-04T05:06:11;18.50;;;8.00;;
77322;SDS011;66384;51.052;9.850;2023-12-04T05:08:44;21.90;;;9.80;;
77322;SDS011;66384;51.052;9.850;2023-12-04T05:11:15;23.80;;;11.20;;
77322;SDS011;66384;51.052;9.850;2023-12-04T05:13:47;22.40;;;11.60;;
77322;SDS011;66384;51.052;9.850;2023-12-04T05:16:19;15.70;;;8.80;;
77322;SDS011;66384;51.052;9.850;2023-12-04T05:18:51;17.40;;;7.80;;
77322;SDS011;66384;51.052;9.850;2023-12-04T05:21:23;15.20;;;7.10;;
77322;SDS011;66384;51.052;9.850;2023-12-04T05:23:54;14.10;;;7.00;;
77322;SDS011;66384;51.052;9.850;2023-12-04T05:26:26;16.80;;;8.80;;
77322;SDS011;66384;51.052;9.850;2023-12-04T05:28:57;21.50;;;9.00;;
77322;SDS011;66384;51.052;9.850;2023-12-04T05:31:29;32.00;;;11.10;;
77322;SDS011;66384;51.052;9.850;2023-12-04T05:34:01;26.70;;;10.90;;
77322;SDS011;66384;51.052;9.850;2023-12-04T05:36:33;19.90;;;8.60;;
77322;SDS011;66384;51.052;9.850;2023-12-04T05:39:04;16.00;;;8.60;;
77322;SDS011;66384;51.052;9.850;2023-12-04T05:41:37;19.20;;;8.50;;
77322;SDS011;66384;51.052;9.850;2023-12-04T05:44:08;18.90;;;8.70;;
77322;SDS011;66384;51.052;9.850;2023-12-04T05:46:40;16.50;;;8.40;;
77322;SDS011;66384;51.052;9.850;2023-12-04T05:49:12;16.40;;;8.00;;
77322;SDS011;66384;51.052;9.850;2023-12-04T05:51:44;15.80;;;7.30;;
77322;SDS011;66384;51.052;9.850;2023-12-04T05:54:15;19.50;;;8.30;;
77322;SDS011;66384;51.052;9.850;2023-12-04T05:56:47;17.70;;;8.10;;
77322;SDS011;66384;51.052;9.850;2023-12-04T05:59:19;16.00;;;7.90;;
77322;SDS011;66384;51.052;9.850;2023-12-04T06:01:50;15.10;;;8.30;;
77322;SDS011;66384;51.052;9.850;2023-12-04T06:04:22;16.30;;;7.30;;
77322;SDS011;66384;51.052;9.850;2023-12-04T06:06:54;19.10;;;8.10;;
77322;SDS011;66384;51.052;9.850;2023-12-04T06:09:25;15.80;;;7.20;;
77322;SDS011;66384;51.052;9.850;2023-12-04T06:11:57;16.60;;;7.30;;
77322;SDS011;66384;51.052;9.850;2023-12-04T06:14:36;15.00;;;6.70;;
77322;SDS011;66384;51.052;9.850;2023-12-04T06:17:08;16.10;;;7.40;;
77322;SDS011;66384;51.052;9.850;2023-12-04T06:19:40;16.30;;;7.20;;
77322;SDS011;66384;51.052;9.850;2023-12-04T06:22:12;12.60;;;5.90;;
77322;SDS011;66384;51.052;9.850;2023-12-04T06:24:48;17.30;;;7.40;;
77322;SDS011;66384;51.052;9.850;2023-12-04T06:27:21;18.30;;;7.10;;
77322;SDS011;66384;51.052;9.850;2023-12-04T06:29:53;23.30;;;7.90;;
77322;SDS011;66384;51.052;9.850;2023-12-04T06:32:26;28.50;;;11.10;;
77322;SDS011;66384;51.052;9.850;2023-12-04T06:34:59;27.00;;;8.60;;
77322;SDS011;66384;51.052;9.850;2023-12-04T06:37:32;27.60;;;10.40;;
77322;SDS011;66384;51.052;9.850;2023-12-04T06:40:07;31.40;;;11.10;;
77322;SDS011;66384;51.052;9.850;2023-12-04T06:42:41;20.20;;;7.80;;
77322;SDS011;66384;51.052;9.850;2023-12-04T06:45:14;12.30;;;7.10;;
77322;SDS011;66384;51.052;9.850;2023-12-04T06:47:47;18.70;;;8.90;;
77322;SDS011;66384;51.052;9.850;2023-12-04T06:50:22;18.50;;;8.80;;
77322;SDS011;66384;51.052;9.850;2023-12-04T06:52:54;20.20;;;10.60;;
77322;SDS011;66384;51.052;9.850;2023-12-04T06:55:25;19.30;;;9.80;;
77322;SDS011;66384;51.052;9.850;2023-12-04T06:57:57;17.60;;;9.70;;
77322;SDS011;66384;51.052;9.850;2023-12-04T07:00:29;20.70;;;9.40;;
77322;SDS011;66384;51.052;9.850;2023-12-04T07:03:01;17.60;;;8.50;;
77322;SDS011;66384;51.052;9.850;2023-12-04T07:05:33;19.10;;;9.30;;
77322;SDS011;66384;51.052;9.850;2023-12-04T07:08:04;18.60;;;9.40;;
77322;SDS011;66384;51.052;9.850;2023-12-04T07:10:36;17.30;;;8.60;;
77322;SDS011;66384;51.052;9.850;2023-12-04T07:13:09;18.40;;;8.80;;
77322;SDS011;66384;51.052;9.850;2023-12-04T07:15:41;19.50;;;9.50;;
77322;SDS011;66384;51.052;9.850;2023-12-04T07:18:13;16.70;;;7.80;;
77322;SDS011;66384;51.052;9.850;2023-12-04T07:20:45;15.40;;;6.90;;
77322;SDS011;66384;51.052;9.850;2023-12-04T07:23:17;15.40;;;7.40;;
77322;SDS011;66384;51.052;9.850;2023-12-04T07:25:51;14.00;;;7.00;;
77322;SDS011;66384;51.052;9.850;2023-12-04T07:28:23;17.50;;;8.10;;
77322;SDS011;66384;51.052;9.850;2023-12-04T07:30:55;16.50;;;8.10;;
77322;SDS011;66384;51.052;9.850;2023-12-04T07:33:27;17.10;;;7.30;;
77322;SDS011;66384;51.052;9.850;2023-12-04T07:35:59;14.80;;;6.60;;
77322;SDS011;66384;51.052;9.850;2023-12-04T07:38:31;14.10;;;6.80;;
77322;SDS011;66384;51.052;9.850;2023-12-04T07:41:03;25.40;;;9.60;;
77322;SDS011;66384;51.052;9.850;2023-12-04T07:43:36;27.70;;;8.70;;
77322;SDS011;66384;51.052;9.850;2023-12-04T07:46:08;26.20;;;8.70;;
77322;SDS011;66384;51.052;9.850;2023-12-04T07:48:40;36.90;;;11.40;;
77322;SDS011;66384;51.052;9.850;2023-12-04T07:51:13;26.00;;;8.90;;
77322;SDS011;66384;51.052;9.850;2023-12-04T07:53:45;28.40;;;8.70;;
77322;SDS011;66384;51.052;9.850;2023-12-04T07:56:17;30.70;;;10.50;;
77322;SDS011;66384;51.052;9.850;2023-12-04T07:58:48;27.00;;;9.40;;
77322;SDS011;66384;51.052;9.850;2023-12-04T08:01:20;23.80;;;9.50;;
77322;SDS011;66384;51.052;9.850;2023-12-04T08:03:53;20.60;;;8.20;;
77322;SDS011;66384;51.052;9.850;2023-12-04T08:06:25;22.50;;;9.40;;
77322;SDS011;66384;51.052;9.850;2023-12-04T08:08:57;21.20;;;8.90;;
77322;SDS011;66384;51.052;9.850;2023-12-04T08:11:28;17.00;;;8.70;;
77322;SDS011;66384;51.052;9.850;2023-12-04T08:14:00;18.80;;;9.10;;
77322;SDS011;66384;51.052;9.850;2023-12-04T08:16:32;38.60;;;14.50;;
77322;SDS011;66384;51.052;9.850;2023-12-04T08:19:03;27.50;;;13.10;;
77322;SDS011;66384;51.052;9.850;2023-12-04T08:21:35;28.70;;;12.40;;
77322;SDS011;66384;51.052;9.850;2023-12-04T08:24:07;30.50;;;12.90;;
77322;SDS011;66384;51.052;9.850;2023-12-04T08:26:39;28.60;;;11.30;;
77322;SDS011;66384;51.052;9.850;2023-12-04T08:29:11;26.20;;;10.80;;
77322;SDS011;66384;51.052;9.850;2023-12-04T08:31:43;35.60;;;13.30;;
77322;SDS011;66384;51.052;9.850;2023-12-04T08:34:14;36.70;;;13.30;;
77322;SDS011;66384;51.052;9.850;2023-12-04T08:36:46;51.40;;;19.10;;
77322;SDS011;66384;51.052;9.850;2023-12-04T08:39:18;41.70;;;14.30;;
77322;SDS011;66384;51.052;9.850;2023-12-04T08:41:51;25.10;;;11.00;;
77322;SDS011;66384;51.052;9.850;2023-12-04T08:44:31;25.70;;;9.90;;
77322;SDS011;66384;51.052;9.850;2023-12-04T08:47:04;27.90;;;10.90;;
77322;SDS011;66384;51.052;9.850;2023-12-04T08:49:36;25.40;;;10.70;;
77322;SDS011;66384;51.052;9.850;2023-12-04T08:52:17;25.80;;;9.50;;
77322;SDS011;66384;51.052;9.850;2023-12-04T08:54:48;21.20;;;9.70;;
77322;SDS011;66384;51.052;9.850;2023-12-04T08:57:20;23.90;;;9.70;;
77322;SDS011;66384;51.052;9.850;2023-12-04T08:59:52;19.40;;;9.50;;
77322;SDS011;66384;51.052;9.850;2023-12-04T09:02:24;21.50;;;9.30;;
77322;SDS011;66384;51.052;9.850;2023-12-04T09:04:55;21.20;;;8.90;;
77322;SDS011;66384;51.052;9.850;2023-12-04T09:07:28;19.60;;;9.20;;
77322;SDS011;66384;51.052;9.850;2023-12-04T09:10:03;16.00;;;7.40;;
77322;SDS011;66384;51.052;9.850;2023-12-04T09:12:44;15.60;;;7.40;;
77322;SDS011;66384;51.052;9.850;2023-12-04T09:15:16;18.70;;;8.10;;
77322;SDS011;66384;51.052;9.850;2023-12-04T09:17:48;22.20;;;8.40;;
77322;SDS011;66384;51.052;9.850;2023-12-04T09:20:19;21.20;;;8.60;;
77322;SDS011;66384;51.052;9.850;2023-12-04T09:22:51;19.80;;;7.70;;
77322;SDS011;66384;51.052;9.850;2023-12-04T09:25:32;21.40;;;9.20;;
77322;SDS011;66384;51.052;9.850;2023-12-04T09:28:04;23.00;;;10.50;;
77322;SDS011;66384;51.052;9.850;2023-12-04T09:30:36;20.60;;;9.30;;
77322;SDS011;66384;51.052;9.850;2023-12-04T09:33:08;17.90;;;10.40;;
77322;SDS011;66384;51.052;9.850;2023-12-04T09:35:40;20.00;;;9.70;;
77322;SDS011;66384;51.052;9.850;2023-12-04T09:38:12;21.20;;;10.90;;
77322;SDS011;66384;51.052;9.850;2023-12-04T09:40:45;19.40;;;9.90;;
77322;SDS011;66384;51.052;9.850;2023-12-04T09:43:17;16.30;;;8.20;;
77322;SDS011;66384;51.052;9.850;2023-12-04T09:45:49;20.30;;;9.60;;
77322;SDS011;66384;51.052;9.850;2023-12-04T09:48:21;15.80;;;8.30;;
77322;SDS011;66384;51.052;9.850;2023-12-04T09:50:54;13.70;;;6.80;;
77322;SDS011;66384;51.052;9.850;2023-12-04T09:53:28;12.60;;;6.70;;
77322;SDS011;66384;51.052;9.850;2023-12-04T09:56:02;17.10;;;8.00;;
77322;SDS011;66384;51.052;9.850;2023-12-04T09:58:36;17.10;;;8.80;;
77322;SDS011;66384;51.052;9.850;2023-12-04T10:01:10;14.80;;;6.90;;
77322;SDS011;66384;51.052;9.850;2023-12-04T10:03:43;19.90;;;8.20;;
77322;SDS011;66384;51.052;9.850;2023-12-04T10:06:16;14.60;;;7.70;;
77322;SDS011;66384;51.052;9.850;2023-12-04T10:08:49;14.10;;;7.30;;
77322;SDS011;66384;51.052;9.850;2023-12-04T10:11:21;15.90;;;7.10;;
77322;SDS011;66384;51.052;9.850;2023-12-04T10:13:55;16.20;;;8.60;;
77322;SDS011;66384;51.052;9.850;2023-12-04T10:16:34;25.70;;;12.30;;
77322;SDS011;66384;51.052;9.850;2023-12-04T10:19:17;20.20;;;9.10;;
77322;SDS011;66384;51.052;9.850;2023-12-04T10:21:53;14.50;;;7.50;;
77322;SDS011;66384;51.052;9.850;2023-12-04T10:24:29;17.00;;;7.00;;
77322;SDS011;66384;51.052;9.850;2023-12-04T10:27:03;12.90;;;6.10;;
77322;SDS011;66384;51.052;9.850;2023-12-04T10:29:42;12.90;;;5.80;;
77322;SDS011;66384;51.052;9.850;2023-12-04T10:32:16;18.50;;;7.20;;
77322;SDS011;66384;51.052;9.850;2023-12-04T10:34:50;14.60;;;6.00;;
77322;SDS011;66384;51.052;9.850;2023-12-04T10:37:24;14.80;;;5.70;;
77322;SDS011;66384;51.052;9.850;2023-12-04T10:39:59;15.10;;;6.50;;
77322;SDS011;66384;51.052;9.850;2023-12-04T10:42:31;12.50;;;6.60;;
77322;SDS011;66384;51.052;9.850;2023-12-04T10:45:04;14.30;;;6.10;;
77322;SDS011;66384;51.052;9.850;2023-12-04T10:47:37;10.60;;;5.60;;
77322;SDS011;66384;51.052;9.850;2023-12-04T10:50:09;11.50;;;6.20;;
77322;SDS011;66384;51.052;9.850;2023-12-04T10:52:44;15.90;;;7.30;;
77322;SDS011;66384;51.052;9.850;2023-12-04T10:55:18;15.30;;;7.10;;
77322;SDS011;66384;51.052;9.850;2023-12-04T10:57:50;13.50;;;6.90;;
77322;SDS011;66384;51.052;9.850;2023-12-04T11:00:24;14.00;;;6.60;;
77322;SDS011;66384;51.052;9.850;2023-12-04T11:02:56;12.60;;;6.70;;
77322;SDS011;66384;51.052;9.850;2023-12-04T11:05:33;13.20;;;6.00;;
77322;SDS011;66384;51.052;9.850;2023-12-04T11:08:11;13.80;;;7.00;;
77322;SDS011;66384;51.052;9.850;2023-12-04T11:10:48;14.20;;;6.30;;
77322;SDS011;66384;51.052;9.850;2023-12-04T11:13:27;16.20;;;7.70;;
77322;SDS011;66384;51.052;9.850;2023-12-04T11:16:01;14.00;;;6.50;;
77322;SDS011;66384;51.052;9.850;2023-12-04T11:18:37;10.80;;;5.80;;
77322;SDS011;66384;51.052;9.850;2023-12-04T11:21:12;16.70;;;7.40;;
77322;SDS011;66384;51.052;9.850;2023-12-04T11:24:27;15.80;;;7.80;;
77322;SDS011;66384;51.052;9.850;2023-12-04T11:26:59;25.60;;;9.20;;
77322;SDS011;66384;51.052;9.850;2023-12-04T11:29:32;36.10;;;12.20;;
77322;SDS011;66384;51.052;9.850;2023-12-04T11:32:07;26.80;;;10.80;;
77322;SDS011;66384;51.052;9.850;2023-12-04T11:34:48;36.70;;;12.50;;
77322;SDS011;66384;51.052;9.850;2023-12-04T11:37:21;25.50;;;8.40;;
77322;SDS011;66384;51.052;9.850;2023-12-04T11:39:54;21.90;;;8.90;;
77322;SDS011;66384;51.052;9.850;2023-12-04T11:42:27;14.60;;;6.50;;
77322;SDS011;66384;51.052;9.850;2023-12-04T11:45:03;11.90;;;5.80;;
77322;SDS011;66384;51.052;9.850;2023-12-04T11:47:51;13.20;;;6.70;;
77322;SDS011;66384;51.052;9.850;2023-12-04T11:50:25;16.60;;;8.20;;
77322;SDS011;66384;51.052;9.850;2023-12-04T11:52:57;14.10;;;7.80;;
77322;SDS011;66384;51.052;9.850;2023-12-04T11:55:34;18.50;;;9.20;;
77322;SDS011;66384;51.052;9.850;2023-12-04T11:58:10;18.40;;;9.50;;
77322;SDS011;66384;51.052;9.850;2023-12-04T12:00:43;17.60;;;8.80;;
77322;SDS011;66384;51.052;9.850;2023-12-04T12:03:16;14.60;;;8.90;;
77322;SDS011;66384;51.052;9.850;2023-12-04T12:05:52;16.20;;;7.90;;
77322;SDS011;66384;51.052;9.850;2023-12-04T12:08:25;24.30;;;10.70;;
77322;SDS011;66384;51.052;9.850;2023-12-04T12:10:59;21.50;;;10.70;;
77322;SDS011;66384;51.052;9.850;2023-12-04T12:17:39;27.70;;;10.70;;
77322;SDS011;66384;51.052;9.850;2023-12-04T12:20:13;25.70;;;10.70;;
77322;SDS011;66384;51.052;9.850;2023-12-04T12:22:45;24.20;;;11.20;;
77322;SDS011;66384;51.052;9.850;2023-12-04T12:25:19;27.80;;;14.90;;
77322;SDS011;66384;51.052;9.850;2023-12-04T12:27:51;34.90;;;16.50;;
77322;SDS011;66384;51.052;9.850;2023-12-04T12:30:23;29.20;;;13.50;;
77322;SDS011;66384;51.052;9.850;2023-12-04T12:32:56;28.70;;;14.40;;
77322;SDS011;66384;51.052;9.850;2023-12-04T12:35:27;23.80;;;11.90;;
77322;SDS011;66384;51.052;9.850;2023-12-04T12:37:59;26.30;;;11.50;;
77322;SDS011;66384;51.052;9.850;2023-12-04T12:40:31;26.50;;;11.70;;
77322;SDS011;66384;51.052;9.850;2023-12-04T12:43:06;24.80;;;11.70;;
77322;SDS011;66384;51.052;9.850;2023-12-04T12:45:42;22.40;;;11.00;;
77322;SDS011;66384;51.052;9.850;2023-12-04T12:48:16;19.60;;;9.70;;
77322;SDS011;66384;51.052;9.850;2023-12-04T12:50:48;17.00;;;9.30;;
77322;SDS011;66384;51.052;9.850;2023-12-04T12:53:20;30.00;;;13.10;;
77322;SDS011;66384;51.052;9.850;2023-12-04T12:55:52;23.00;;;10.20;;
77322;SDS011;66384;51.052;9.850;2023-12-04T12:58:25;13.60;;;7.60;;
77322;SDS011;66384;51.052;9.850;2023-12-04T13:00:57;13.60;;;7.50;;
77322;SDS011;66384;51.052;9.850;2023-12-04T13:03:29;13.30;;;7.10;;
77322;SDS011;66384;51.052;9.850;2023-12-04T13:06:02;12.10;;;6.80;;
77322;SDS011;66384;51.052;9.850;2023-12-04T13:08:34;14.60;;;7.40;;
77322;SDS011;66384;51.052;9.850;2023-12-04T13:11:06;12.50;;;6.20;;
77322;SDS011;66384;51.052;9.850;2023-12-04T13:13:38;14.70;;;7.70;;
77322;SDS011;66384;51.052;9.850;2023-12-04T13:16:10;14.60;;;7.40;;
77322;SDS011;66384;51.052;9.850;2023-12-04T13:18:42;14.00;;;7.10;;
77322;SDS011;66384;51.052;9.850;2023-12-04T13:21:14;18.10;;;7.40;;
77322;SDS011;66384;51.052;9.850;2023-12-04T13:23:45;16.90;;;6.60;;
77322;SDS011;66384;51.052;9.850;2023-12-04T13:26:17;18.30;;;7.80;;
77322;SDS011;66384;51.052;9.850;2023-12-04T13:28:50;9.80;;;5.10;;
77322;SDS011;66384;51.052;9.850;2023-12-04T13:31:22;12.10;;;5.20;;
77322;SDS011;66384;51.052;9.850;2023-12-04T13:33:55;11.60;;;5.20;;
77322;SDS011;66384;51.052;9.850;2023-12-04T13:36:27;13.20;;;6.00;;
77322;SDS011;66384;51.052;9.850;2023-12-04T13:38:58;12.40;;;6.00;;
77322;SDS011;66384;51.052;9.850;2023-12-04T13:41:31;13.40;;;6.80;;
77322;SDS011;66384;51.052;9.850;2023-12-04T13:44:21;13.00;;;6.50;;
77322;SDS011;66384;51.052;9.850;2023-12-04T13:46:53;9.60;;;5.80;;
77322;SDS011;66384;51.052;9.850;2023-12-04T13:49:25;17.80;;;8.80;;
77322;SDS011;66384;51.052;9.850;2023-12-04T13:51:57;16.10;;;5.90;;
77322;SDS011;66384;51.052;9.850;2023-12-04T13:54:29;11.00;;;6.00;;
77322;SDS011;66384;51.052;9.850;2023-12-04T13:57:12;10.00;;;5.00;;
77322;SDS011;66384;51.052;9.850;2023-12-04T13:59:49;11.90;;;6.30;;
77322;SDS011;66384;51.052;9.850;2023-12-04T14:02:21;15.40;;;7.00;;
77322;SDS011;66384;51.052;9.850;2023-12-04T14:04:53;10.30;;;6.00;;
77322;SDS011;66384;51.052;9.850;2023-12-04T14:07:25;10.90;;;6.80;;
77322;SDS011;66384;51.052;9.850;2023-12-04T14:09:57;15.10;;;7.60;;
77322;SDS011;66384;51.052;9.850;2023-12-04T14:12:29;11.00;;;5.90;;
77322;SDS011;66384;51.052;9.850;2023-12-04T14:15:01;13.50;;;6.50;;
77322;SDS011;66384;51.052;9.850;2023-12-04T14:17:34;14.60;;;6.70;;
77322;SDS011;66384;51.052;9.850;2023-12-04T14:20:08;27.30;;;10.00;;
77322;SDS011;66384;51.052;9.850;2023-12-04T14:22:44;44.00;;;12.50;;
77322;SDS011;66384;51.052;9.850;2023-12-04T14:25:16;35.50;;;13.00;;
77322;SDS011;66384;51.052;9.850;2023-12-04T14:27:48;41.10;;;13.20;;
77322;SDS011;66384;51.052;9.850;2023-12-04T14:30:20;28.00;;;9.30;;
77322;SDS011;66384;51.052;9.850;2023-12-04T14:32:51;19.00;;;7.70;;
77322;SDS011;66384;51.052;9.850;2023-12-04T14:35:24;18.20;;;7.80;;
77322;SDS011;66384;51.052;9.850;2023-12-04T14:37:57;14.30;;;6.50;;
77322;SDS011;66384;51.052;9.850;2023-12-04T14:40:28;15.00;;;6.90;;
77322;SDS011;66384;51.052;9.850;2023-12-04T14:43:00;10.90;;;5.00;;
77322;SDS011;66384;51.052;9.850;2023-12-04T14:45:34;12.70;;;5.70;;
77322;SDS011;66384;51.052;9.850;2023-12-04T14:48:06;12.10;;;6.00;;
77322;SDS011;66384;51.052;9.850;2023-12-04T14:50:38;12.40;;;6.70;;
77322;SDS011;66384;51.052;9.850;2023-12-04T14:53:09;11.10;;;5.80;;
77322;SDS011;66384;51.052;9.850;2023-12-04T14:55:55;13.50;;;6.80;;
77322;SDS011;66384;51.052;9.850;2023-12-04T14:59:03;9.50;;;4.50;;
77322;SDS011;66384;51.052;9.850;2023-12-04T15:02:02;10.30;;;5.90;;
77322;SDS011;66384;51.052;9.850;2023-12-04T15:05:14;10.40;;;5.00;;
77322;SDS011;66384;51.052;9.850;2023-12-04T15:08:17;13.70;;;5.90;;
77322;SDS011;66384;51.052;9.850;2023-12-04T15:11:09;13.60;;;6.20;;
77322;SDS011;66384;51.052;9.850;2023-12-04T15:13:54;11.30;;;6.20;;